createdAt,value
2016-06-23T00:00:58.544Z,1020.14
2016-06-23T00:01:58.550Z,1020.14
2016-06-23T00:02:58.544Z,1020.13
2016-06-23T00:03:58.541Z,1020.08
2016-06-23T00:04:58.542Z,1020.1
2016-06-23T00:05:58.543Z,1020.1
2016-06-23T00:06:58.538Z,1020.09
2016-06-23T00:07:58.544Z,1020.11
2016-06-23T00:08:58.541Z,1020.11
2016-06-23T00:09:58.539Z,1020.11
2016-06-23T00:10:58.544Z,1020.1
2016-06-23T00:11:58.538Z,1020.1
2016-06-23T00:12:58.539Z,1020.1
2016-06-23T00:13:58.541Z,1020.14
2016-06-23T00:14:58.536Z,1020.14
2016-06-23T00:15:58.535Z,1020.14
2016-06-23T00:16:58.535Z,1020.12
2016-06-23T00:17:58.536Z,1020.1
2016-06-23T00:18:58.538Z,1020.11
2016-06-23T00:19:58.538Z,1020.1
2016-06-23T00:20:58.542Z,1020.09
2016-06-23T00:21:58.536Z,1020.08
2016-06-23T00:22:58.832Z,1020.1
2016-06-23T00:24:00.116Z,1020.02
2016-06-23T00:24:59.345Z,1020.06
2016-06-23T00:25:58.533Z,1020.11
2016-06-23T00:26:58.796Z,1020.09
2016-06-23T00:27:58.726Z,1020.09
2016-06-23T00:28:58.533Z,1020.14
2016-06-23T00:29:58.727Z,1020.16
2016-06-23T00:30:58.527Z,1020.18
2016-06-23T00:31:58.528Z,1020.2
2016-06-23T00:32:58.532Z,1020.17
2016-06-23T00:33:58.529Z,1020.18
2016-06-23T00:34:58.563Z,1020.17
2016-06-23T00:35:58.730Z,1020.15
2016-06-23T00:36:58.526Z,1020.18
2016-06-23T00:37:58.525Z,1020.18
2016-06-23T00:38:58.525Z,1020.18
2016-06-23T00:39:58.523Z,1020.18
2016-06-23T00:40:58.525Z,1020.19
2016-06-23T00:41:58.524Z,1020.19
2016-06-23T00:42:58.524Z,1020.24
2016-06-23T00:43:58.528Z,1020.21
2016-06-23T00:44:58.523Z,1020.23
2016-06-23T00:45:58.525Z,1020.22
2016-06-23T00:46:58.519Z,1020.22
2016-06-23T00:47:58.523Z,1020.21
2016-06-23T00:48:58.519Z,1020.18
2016-06-23T00:49:58.519Z,1020.2
2016-06-23T00:50:58.523Z,1020.18
2016-06-23T00:51:58.524Z,1020.17
2016-06-23T00:52:58.521Z,1020.22
2016-06-23T00:53:58.519Z,1020.22
2016-06-23T00:54:58.520Z,1020.22
2016-06-23T00:55:58.520Z,1020.23
2016-06-23T00:56:58.515Z,1020.18
2016-06-23T00:57:58.518Z,1020.17
2016-06-23T00:58:58.510Z,1020.23
2016-06-23T00:59:58.516Z,1020.16
2016-06-23T01:00:58.512Z,1020.18
2016-06-23T01:01:58.531Z,1020.2
2016-06-23T01:02:58.515Z,1020.18
2016-06-23T01:03:58.511Z,1020.14
2016-06-23T01:04:58.508Z,1020.19
2016-06-23T01:05:58.513Z,1020.18
2016-06-23T01:06:58.510Z,1020.19
2016-06-23T01:07:58.567Z,1020.16
2016-06-23T01:08:58.510Z,1020.22
2016-06-23T01:09:58.508Z,1020.24
2016-06-23T01:10:58.511Z,1020.2
2016-06-23T01:11:58.558Z,1020.24
2016-06-23T01:12:58.557Z,1020.22
2016-06-23T01:13:58.507Z,1020.2
2016-06-23T01:14:58.506Z,1020.15
2016-06-23T01:15:58.601Z,1020.21
2016-06-23T01:16:58.502Z,1020.24
2016-06-23T01:17:58.504Z,1020.23
2016-06-23T01:18:58.501Z,1020.28
2016-06-23T01:19:58.500Z,1020.26
2016-06-23T01:20:58.501Z,1020.24
2016-06-23T01:21:58.494Z,1020.23
2016-06-23T01:22:58.496Z,1020.21
2016-06-23T01:23:58.501Z,1020.24
2016-06-23T01:24:58.499Z,1020.25
2016-06-23T01:25:58.500Z,1020.25
2016-06-23T01:26:58.496Z,1020.27
2016-06-23T01:27:58.496Z,1020.24
2016-06-23T01:28:58.497Z,1020.25
2016-06-23T01:29:58.505Z,1020.26
2016-06-23T01:30:58.491Z,1020.27
2016-06-23T01:31:58.491Z,1020.25
2016-06-23T01:32:58.492Z,1020.23
2016-06-23T01:33:58.495Z,1020.24
2016-06-23T01:34:58.491Z,1020.22
2016-06-23T01:35:58.495Z,1020.16
2016-06-23T01:36:58.493Z,1020.22
2016-06-23T01:37:58.487Z,1020.24
2016-06-23T01:38:58.489Z,1020.23
2016-06-23T01:39:58.486Z,1020.2
2016-06-23T01:40:59.690Z,1020.23
2016-06-23T01:41:58.485Z,1020.26
2016-06-23T01:42:58.487Z,1020.2
2016-06-23T01:43:58.491Z,1020.2
2016-06-23T01:45:00.265Z,1020.16
2016-06-23T01:45:58.482Z,1020.22
2016-06-23T01:46:59.061Z,1020.2
2016-06-23T01:47:58.961Z,1020.24
2016-06-23T01:48:58.479Z,1020.24
2016-06-23T01:49:58.479Z,1020.23
2016-06-23T01:50:59.630Z,1020.23
2016-06-23T01:51:59.505Z,1020.26
2016-06-23T01:52:58.477Z,1020.27
2016-06-23T01:53:58.479Z,1020.28
2016-06-23T01:54:58.474Z,1020.26
2016-06-23T01:55:58.663Z,1020.26
2016-06-23T01:56:58.476Z,1020.29
2016-06-23T01:57:58.471Z,1020.28
2016-06-23T01:58:58.480Z,1020.26
2016-06-23T01:59:58.467Z,1020.27
2016-06-23T02:00:58.467Z,1020.22
2016-06-23T02:01:58.469Z,1020.23
2016-06-23T02:02:58.474Z,1020.23
2016-06-23T02:03:58.468Z,1020.25
2016-06-23T02:04:58.471Z,1020.25
2016-06-23T02:05:58.467Z,1020.26
2016-06-23T02:06:58.466Z,1020.27
2016-06-23T02:07:58.467Z,1020.31
2016-06-23T02:08:58.462Z,1020.33
2016-06-23T02:09:58.466Z,1020.33
2016-06-23T02:10:58.467Z,1020.3
2016-06-23T02:11:58.464Z,1020.29
2016-06-23T02:12:58.460Z,1020.29
2016-06-23T02:13:58.463Z,1020.27
2016-06-23T02:14:58.458Z,1020.29
2016-06-23T02:15:58.458Z,1020.3
2016-06-23T02:16:58.456Z,1020.29
2016-06-23T02:17:58.456Z,1020.29
2016-06-23T02:18:58.456Z,1020.33
2016-06-23T02:19:58.458Z,1020.35
2016-06-23T02:20:58.462Z,1020.3
2016-06-23T02:21:58.453Z,1020.3
2016-06-23T02:22:58.454Z,1020.32
2016-06-23T02:23:58.451Z,1020.32
2016-06-23T02:24:58.450Z,1020.35
2016-06-23T02:25:58.451Z,1020.35
2016-06-23T02:26:58.448Z,1020.38
2016-06-23T02:27:58.444Z,1020.35
2016-06-23T02:28:58.445Z,1020.37
2016-06-23T02:29:58.454Z,1020.35
2016-06-23T02:30:58.442Z,1020.34
2016-06-23T02:31:58.443Z,1020.38
2016-06-23T02:32:58.443Z,1020.35
2016-06-23T02:33:58.438Z,1020.36
2016-06-23T02:34:58.443Z,1020.36
2016-06-23T02:35:58.439Z,1020.34
2016-06-23T02:36:58.436Z,1020.33
2016-06-23T02:37:58.436Z,1020.3
2016-06-23T02:38:58.440Z,1020.29
2016-06-23T02:39:58.431Z,1020.28
2016-06-23T02:40:58.431Z,1020.3
2016-06-23T02:41:58.434Z,1020.31
2016-06-23T02:42:58.432Z,1020.35
2016-06-23T02:43:58.433Z,1020.38
2016-06-23T02:44:58.431Z,1020.38
2016-06-23T02:45:58.429Z,1020.4
2016-06-23T02:46:58.432Z,1020.4
2016-06-23T02:47:58.431Z,1020.42
2016-06-23T02:48:58.424Z,1020.4
2016-06-23T02:49:58.432Z,1020.44
2016-06-23T02:50:58.427Z,1020.44
2016-06-23T02:51:58.422Z,1020.44
2016-06-23T02:52:58.425Z,1020.46
2016-06-23T02:53:58.425Z,1020.44
2016-06-23T02:54:58.418Z,1020.45
2016-06-23T02:55:58.417Z,1020.46
2016-06-23T02:56:58.420Z,1020.46
2016-06-23T02:57:58.418Z,1020.43
2016-06-23T02:58:58.419Z,1020.45
2016-06-23T02:59:58.467Z,1020.43
2016-06-23T03:00:59.341Z,1020.42
2016-06-23T03:01:58.417Z,1020.38
2016-06-23T03:02:59.388Z,1020.39
2016-06-23T03:03:58.411Z,1020.37
2016-06-23T03:04:58.412Z,1020.36
2016-06-23T03:05:58.411Z,1020.34
2016-06-23T03:06:58.411Z,1020.36
2016-06-23T03:07:58.416Z,1020.39
2016-06-23T03:08:58.420Z,1020.34
2016-06-23T03:09:58.406Z,1020.34
2016-06-23T03:10:58.414Z,1020.36
2016-06-23T03:11:58.414Z,1020.37
2016-06-23T03:12:58.411Z,1020.38
2016-06-23T03:13:58.401Z,1020.32
2016-06-23T03:14:58.399Z,1020.31
2016-06-23T03:15:58.501Z,1020.33
2016-06-23T03:16:58.406Z,1020.37
2016-06-23T03:17:58.397Z,1020.31
2016-06-23T03:18:58.408Z,1020.29
2016-06-23T03:19:58.402Z,1020.29
2016-06-23T03:20:58.398Z,1020.33
2016-06-23T03:21:58.398Z,1020.33
2016-06-23T03:22:58.395Z,1020.39
2016-06-23T03:23:58.396Z,1020.34
2016-06-23T03:24:58.398Z,1020.36
2016-06-23T03:25:58.393Z,1020.39
2016-06-23T03:26:58.394Z,1020.44
2016-06-23T03:27:58.397Z,1020.41
2016-06-23T03:28:58.395Z,1020.38
2016-06-23T03:29:58.402Z,1020.34
2016-06-23T03:30:58.395Z,1020.37
2016-06-23T03:31:58.391Z,1020.41
2016-06-23T03:32:58.396Z,1020.38
2016-06-23T03:33:58.395Z,1020.45
2016-06-23T03:34:58.399Z,1020.41
2016-06-23T03:35:58.391Z,1020.44
2016-06-23T03:36:58.397Z,1020.45
2016-06-23T03:37:58.404Z,1020.45
2016-06-23T03:38:58.393Z,1020.49
2016-06-23T03:39:58.399Z,1020.47
2016-06-23T03:40:58.399Z,1020.45
2016-06-23T03:41:58.401Z,1020.44
2016-06-23T03:42:58.400Z,1020.43
2016-06-23T03:43:58.405Z,1020.43
2016-06-23T03:44:58.407Z,1020.47
2016-06-23T03:45:58.409Z,1020.44
2016-06-23T03:46:58.417Z,1020.47
2016-06-23T03:47:58.411Z,1020.42
2016-06-23T03:48:58.421Z,1020.45
2016-06-23T03:49:58.419Z,1020.49
2016-06-23T03:50:58.427Z,1020.47
2016-06-23T03:51:58.429Z,1020.46
2016-06-23T03:52:58.435Z,1020.52
2016-06-23T03:53:58.433Z,1020.45
2016-06-23T03:54:58.440Z,1020.43
2016-06-23T03:55:58.456Z,1020.45
2016-06-23T03:56:58.447Z,1020.49
2016-06-23T03:57:58.460Z,1020.43
2016-06-23T03:58:58.461Z,1020.45
2016-06-23T03:59:58.463Z,1020.46
2016-06-23T04:00:58.472Z,1020.47
2016-06-23T04:01:58.478Z,1020.51
2016-06-23T04:02:58.482Z,1020.54
2016-06-23T04:03:58.489Z,1020.52
2016-06-23T04:04:58.502Z,1020.54
2016-06-23T04:05:58.502Z,1020.54
2016-06-23T04:06:58.511Z,1020.51
2016-06-23T04:07:58.523Z,1020.52
2016-06-23T04:08:58.528Z,1020.56
2016-06-23T04:09:58.531Z,1020.52
2016-06-23T04:10:58.542Z,1020.54
2016-06-23T04:11:58.553Z,1020.52
2016-06-23T04:12:58.562Z,1020.54
2016-06-23T04:13:58.567Z,1020.54
2016-06-23T04:14:58.570Z,1020.57
2016-06-23T04:15:58.583Z,1020.58
2016-06-23T04:16:58.593Z,1020.55
2016-06-23T04:17:59.552Z,1020.56
2016-06-23T04:19:58.618Z,1020.62
2016-06-23T04:20:58.629Z,1020.62
2016-06-23T04:21:58.640Z,1020.68
2016-06-23T04:22:58.646Z,1020.67
2016-06-23T04:23:58.657Z,1020.65
2016-06-23T04:24:58.667Z,1020.65
2016-06-23T04:25:58.676Z,1020.68
2016-06-23T04:26:58.690Z,1020.62
2016-06-23T04:27:58.701Z,1020.61
2016-06-23T04:28:58.708Z,1020.61
2016-06-23T04:30:00.903Z,1020.64
2016-06-23T04:30:58.734Z,1020.64
2016-06-23T04:31:58.741Z,1020.68
2016-06-23T04:32:59.101Z,1020.67
2016-06-23T04:33:58.760Z,1020.64
2016-06-23T04:34:58.778Z,1020.66
2016-06-23T04:35:58.790Z,1020.65
2016-06-23T04:36:58.797Z,1020.66
2016-06-23T04:37:58.811Z,1020.72
2016-06-23T04:38:58.821Z,1020.71
2016-06-23T04:39:58.835Z,1020.71
2016-06-23T04:40:58.843Z,1020.74
2016-06-23T04:41:58.862Z,1020.74
2016-06-23T04:42:58.868Z,1020.72
2016-06-23T04:43:58.879Z,1020.72
2016-06-23T04:44:58.893Z,1020.77
2016-06-23T04:45:58.905Z,1020.78
2016-06-23T04:46:58.920Z,1020.78
2016-06-23T04:47:58.930Z,1020.79
2016-06-23T04:48:58.941Z,1020.84
2016-06-23T04:49:58.952Z,1020.81
2016-06-23T04:50:58.971Z,1020.83
2016-06-23T04:51:58.977Z,1020.81
2016-06-23T04:52:58.993Z,1020.79
2016-06-23T04:53:59.013Z,1020.78
2016-06-23T04:54:59.025Z,1020.79
2016-06-23T04:55:59.032Z,1020.78
2016-06-23T04:56:59.050Z,1020.77
2016-06-23T04:57:59.063Z,1020.77
2016-06-23T04:58:59.076Z,1020.85
2016-06-23T04:59:59.089Z,1020.78
2016-06-23T05:00:59.099Z,1020.78
2016-06-23T05:01:59.117Z,1020.79
2016-06-23T05:02:59.135Z,1020.82
2016-06-23T05:03:59.144Z,1020.75
2016-06-23T05:04:59.160Z,1020.8
2016-06-23T05:05:59.178Z,1020.8
2016-06-23T05:06:59.193Z,1020.78
2016-06-23T05:07:59.212Z,1020.82
2016-06-23T05:08:59.216Z,1020.82
2016-06-23T05:09:59.235Z,1020.83
2016-06-23T05:10:59.246Z,1020.79
2016-06-23T05:11:59.262Z,1020.8
2016-06-23T05:12:59.280Z,1020.79
2016-06-23T05:13:59.298Z,1020.83
2016-06-23T05:14:59.313Z,1020.78
2016-06-23T05:15:59.425Z,1020.76
2016-06-23T05:16:59.342Z,1020.75
2016-06-23T05:17:59.361Z,1020.76
2016-06-23T05:18:59.371Z,1020.8
2016-06-23T05:19:59.391Z,1020.76
2016-06-23T05:20:59.404Z,1020.77
2016-06-23T05:21:59.420Z,1020.83
2016-06-23T05:22:59.434Z,1020.76
2016-06-23T05:23:59.455Z,1020.76
2016-06-23T05:24:59.469Z,1020.73
2016-06-23T05:26:59.506Z,1020.7
2016-06-23T05:27:59.522Z,1020.69
2016-06-23T05:28:59.537Z,1020.69
2016-06-23T05:29:59.548Z,1020.67
2016-06-23T05:30:59.573Z,1020.69
2016-06-23T05:31:59.587Z,1020.69
2016-06-23T05:32:59.598Z,1020.71
2016-06-23T05:33:59.623Z,1020.67
2016-06-23T05:34:59.638Z,1020.68
2016-06-23T05:35:59.650Z,1020.66
2016-06-23T05:36:59.670Z,1020.65
2016-06-23T05:38:01.224Z,1020.67
2016-06-23T05:39:00.845Z,1020.63
2016-06-23T05:40:01.014Z,1020.64
2016-06-23T05:41:00.191Z,1020.64
2016-06-23T05:41:59.757Z,1020.64
2016-06-23T05:42:59.774Z,1020.64
2016-06-23T05:43:59.790Z,1020.65
2016-06-23T05:44:59.809Z,1020.64
2016-06-23T05:46:59.847Z,1020.6
2016-06-23T05:48:00.010Z,1020.57
2016-06-23T05:48:59.882Z,1020.57
2016-06-23T05:49:59.897Z,1020.55
2016-06-23T05:50:59.920Z,1020.52
2016-06-23T05:51:59.946Z,1020.58
2016-06-23T05:53:00.201Z,1020.53
2016-06-23T05:53:59.971Z,1020.51
2016-06-23T05:54:59.990Z,1020.49
2016-06-23T05:56:00.011Z,1020.49
2016-06-23T05:57:00.027Z,1020.47
2016-06-23T05:58:00.040Z,1020.48
2016-06-23T05:59:00.071Z,1020.48
2016-06-23T06:00:00.087Z,1020.48
2016-06-23T06:01:00.101Z,1020.48
2016-06-23T06:02:00.116Z,1020.48
2016-06-23T06:03:00.137Z,1020.51
2016-06-23T06:04:00.155Z,1020.46
2016-06-23T06:05:00.177Z,1020.46
2016-06-23T06:06:00.194Z,1020.5
2016-06-23T06:07:00.212Z,1020.5
2016-06-23T06:08:00.231Z,1020.5
2016-06-23T06:09:00.251Z,1020.54
2016-06-23T06:10:00.267Z,1020.53
2016-06-23T06:11:00.286Z,1020.56
2016-06-23T06:12:00.307Z,1020.55
2016-06-23T06:13:00.323Z,1020.49
2016-06-23T06:14:00.342Z,1020.55
2016-06-23T06:15:00.391Z,1020.51
2016-06-23T06:16:00.482Z,1020.53
2016-06-23T06:17:00.400Z,1020.52
2016-06-23T06:18:00.418Z,1020.53
2016-06-23T06:19:00.441Z,1020.61
2016-06-23T06:20:00.458Z,1020.53
2016-06-23T06:21:00.481Z,1020.53
2016-06-23T06:22:00.495Z,1020.55
2016-06-23T06:23:00.514Z,1020.55
2016-06-23T06:24:00.531Z,1020.52
2016-06-23T06:25:00.558Z,1020.53
2016-06-23T06:26:00.574Z,1020.51
2016-06-23T06:27:00.592Z,1020.51
2016-06-23T06:28:00.615Z,1020.51
2016-06-23T06:29:00.630Z,1020.51
2016-06-23T06:30:00.647Z,1020.51
2016-06-23T06:31:00.676Z,1020.53
2016-06-23T06:32:00.693Z,1020.5
2016-06-23T06:33:00.716Z,1020.51
2016-06-23T06:34:00.731Z,1020.5
2016-06-23T06:35:00.749Z,1020.56
2016-06-23T06:36:00.769Z,1020.54
2016-06-23T06:37:00.792Z,1020.56
2016-06-23T06:38:00.814Z,1020.6
2016-06-23T06:39:00.832Z,1020.61
2016-06-23T06:40:00.851Z,1020.63
2016-06-23T06:41:00.868Z,1020.63
2016-06-23T06:42:00.891Z,1020.65
2016-06-23T06:43:00.914Z,1020.69
2016-06-23T06:44:00.934Z,1020.75
2016-06-23T06:45:00.954Z,1020.75
2016-06-23T06:46:00.972Z,1020.77
2016-06-23T06:47:00.987Z,1020.76
2016-06-23T06:48:01.011Z,1020.82
2016-06-23T06:49:01.028Z,1020.85
2016-06-23T06:50:01.051Z,1020.83
2016-06-23T06:51:01.070Z,1020.88
2016-06-23T06:52:01.087Z,1020.85
2016-06-23T06:53:01.113Z,1020.86
2016-06-23T06:54:01.129Z,1020.84
2016-06-23T06:55:01.152Z,1020.83
2016-06-23T06:57:01.193Z,1020.83
2016-06-23T06:58:01.322Z,1020.85
2016-06-23T06:59:01.231Z,1020.87
2016-06-23T07:00:01.258Z,1020.83
2016-06-23T07:01:01.269Z,1020.86
2016-06-23T07:02:01.291Z,1020.82
2016-06-23T07:03:01.315Z,1020.79
2016-06-23T07:04:01.338Z,1020.81
2016-06-23T07:05:01.355Z,1020.79
2016-06-23T07:06:01.835Z,1020.83
2016-06-23T07:07:01.395Z,1020.86
2016-06-23T07:08:01.418Z,1020.92
2016-06-23T07:09:01.436Z,1020.93
2016-06-23T07:10:01.459Z,1020.97
2016-06-23T07:11:01.485Z,1020.96
2016-06-23T07:12:01.496Z,1020.99
2016-06-23T07:13:01.512Z,1020.98
2016-06-23T07:14:01.543Z,1021.01
2016-06-23T07:15:01.570Z,1020.98
2016-06-23T07:16:01.683Z,1020.99
2016-06-23T07:17:01.611Z,1021.05
2016-06-23T07:18:01.622Z,1021.06
2016-06-23T07:19:01.652Z,1021.09
2016-06-23T07:20:01.676Z,1021.13
2016-06-23T07:21:01.691Z,1021.15
2016-06-23T07:22:01.709Z,1021.16
2016-06-23T07:23:01.725Z,1021.14
2016-06-23T07:24:01.743Z,1021.15
2016-06-23T07:25:01.769Z,1021.19
2016-06-23T07:26:01.784Z,1021.23
2016-06-23T07:27:01.804Z,1021.3
2016-06-23T07:28:01.828Z,1021.39
2016-06-23T07:29:01.843Z,1021.41
2016-06-23T07:30:01.875Z,1021.5
2016-06-23T07:31:01.890Z,1021.55
2016-06-23T07:32:01.906Z,1021.57
2016-06-23T07:33:01.929Z,1021.57
2016-06-23T07:34:01.949Z,1021.6
2016-06-23T07:35:01.972Z,1021.58
2016-06-23T07:36:01.988Z,1021.5
2016-06-23T07:37:02.013Z,1021.53
2016-06-23T07:38:02.031Z,1021.57
2016-06-23T07:39:02.045Z,1021.56
2016-06-23T07:40:02.070Z,1021.57
2016-06-23T07:41:02.089Z,1021.55
2016-06-23T07:42:02.119Z,1021.53
2016-06-23T07:43:02.129Z,1021.58
2016-06-23T07:44:02.154Z,1021.52
2016-06-23T07:45:02.175Z,1021.54
2016-06-23T07:46:02.195Z,1021.53
2016-06-23T07:47:02.205Z,1021.45
2016-06-23T07:48:02.227Z,1021.47
2016-06-23T07:49:02.253Z,1021.41
2016-06-23T07:50:02.273Z,1021.32
2016-06-23T07:51:02.288Z,1021.35
2016-06-23T07:52:02.314Z,1021.4
2016-06-23T07:53:02.336Z,1021.48
2016-06-23T07:54:02.348Z,1021.6
2016-06-23T07:55:02.375Z,1021.75
2016-06-23T07:56:02.389Z,1021.84
2016-06-23T07:57:02.440Z,1022.14
2016-06-23T07:58:02.431Z,1022.34
2016-06-23T07:59:02.450Z,1022.43
2016-06-23T08:00:02.471Z,1022.54
2016-06-23T08:01:02.489Z,1022.55
2016-06-23T08:02:02.503Z,1022.53
2016-06-23T08:03:02.529Z,1022.49
2016-06-23T08:04:02.554Z,1022.48
2016-06-23T08:05:02.567Z,1022.68
2016-06-23T08:06:02.590Z,1022.73
2016-06-23T08:07:02.608Z,1022.9
2016-06-23T08:08:02.623Z,1022.94
2016-06-23T08:09:02.645Z,1023.04
2016-06-23T08:10:02.668Z,1023.05
2016-06-23T08:11:02.683Z,1022.9
2016-06-23T08:12:02.708Z,1022.77
2016-06-23T08:13:02.722Z,1022.73
2016-06-23T08:16:03.607Z,1022.45
2016-06-23T08:17:03.970Z,1022.54
2016-06-23T08:18:02.826Z,1022.39
2016-06-23T08:19:02.845Z,1022.41
2016-06-23T08:20:02.859Z,1022.37
2016-06-23T08:21:02.881Z,1022.27
2016-06-23T08:22:02.926Z,1022.21
2016-06-23T08:23:02.926Z,1022.11
2016-06-23T08:24:03.140Z,1022.03
2016-06-23T08:25:02.959Z,1022.02
2016-06-23T08:26:03.489Z,1021.87
2016-06-23T08:27:03.002Z,1021.79
2016-06-23T08:28:03.167Z,1021.7
2016-06-23T08:29:03.032Z,1021.59
2016-06-23T08:30:03.055Z,1021.51
2016-06-23T08:31:03.071Z,1021.46
2016-06-23T08:32:03.116Z,1021.45
2016-06-23T08:33:03.115Z,1021.3
2016-06-23T08:34:03.131Z,1021.24
2016-06-23T08:35:03.152Z,1021.21
2016-06-23T08:36:03.174Z,1021.17
2016-06-23T08:37:03.194Z,1021.12
2016-06-23T08:38:03.218Z,1021.11
2016-06-23T08:39:03.228Z,1021.11
2016-06-23T08:40:03.253Z,1021.09
2016-06-23T08:41:03.274Z,1021.07
2016-06-23T08:42:03.290Z,1021.03
2016-06-23T08:43:03.308Z,1021.08
2016-06-23T08:44:03.329Z,1021.07
2016-06-23T08:45:03.794Z,1021.06
2016-06-23T08:46:03.369Z,1021.04
2016-06-23T08:47:03.386Z,1021.11
2016-06-23T08:48:03.407Z,1021.08
2016-06-23T08:49:03.432Z,1021.21
2016-06-23T08:50:03.449Z,1021.28
2016-06-23T08:51:03.465Z,1021.24
2016-06-23T08:52:03.488Z,1021.26
2016-06-23T08:53:03.505Z,1021.25
2016-06-23T08:54:03.532Z,1021.29
2016-06-23T08:55:03.543Z,1021.03
2016-06-23T08:56:03.573Z,1020.57
2016-06-23T08:57:03.583Z,1020.35
2016-06-23T08:58:03.619Z,1020.35
2016-06-23T08:59:03.619Z,1020.38
2016-06-23T09:00:03.654Z,1020.33
2016-06-23T09:01:03.659Z,1020.26
2016-06-23T09:02:03.676Z,1020.29
2016-06-23T09:03:03.698Z,1020.23
2016-06-23T09:04:03.715Z,1020.2
2016-06-23T09:05:03.731Z,1020.15
2016-06-23T09:06:03.751Z,1020.11
2016-06-23T09:07:03.772Z,1020.08
2016-06-23T09:08:03.780Z,1020.11
2016-06-23T09:09:03.801Z,1020.12
2016-06-23T09:10:03.819Z,1020.03
2016-06-23T09:11:03.830Z,1019.96
2016-06-23T09:12:03.847Z,1020.02
2016-06-23T09:13:03.862Z,1019.97
2016-06-23T09:14:03.877Z,1019.97
2016-06-23T09:15:03.886Z,1020.01
2016-06-23T09:16:03.952Z,1019.97
2016-06-23T09:17:03.911Z,1019.96
2016-06-23T09:18:03.926Z,1019.92
2016-06-23T09:19:03.939Z,1019.93
2016-06-23T09:20:03.947Z,1019.94
2016-06-23T09:21:03.968Z,1019.93
2016-06-23T09:22:03.977Z,1019.84
2016-06-23T09:23:03.995Z,1019.86
2016-06-23T09:24:04.005Z,1019.88
2016-06-23T09:25:04.023Z,1019.81
2016-06-23T09:26:04.021Z,1019.83
2016-06-23T09:27:04.034Z,1019.85
2016-06-23T09:28:04.050Z,1019.91
2016-06-23T09:29:04.066Z,1019.94
2016-06-23T09:30:04.071Z,1019.84
2016-06-23T09:31:04.081Z,1019.8
2016-06-23T09:32:04.090Z,1019.78
2016-06-23T09:34:04.120Z,1019.83
2016-06-23T09:35:05.143Z,1019.85
2016-06-23T09:36:04.291Z,1019.85
2016-06-23T09:37:04.447Z,1019.92
2016-06-23T09:38:04.156Z,1019.89
2016-06-23T09:39:04.167Z,1019.75
2016-06-23T09:40:04.184Z,1019.79
2016-06-23T09:41:04.185Z,1019.79
2016-06-23T09:42:05.409Z,1019.76
2016-06-23T09:43:04.207Z,1019.74
2016-06-23T09:44:04.211Z,1019.74
2016-06-23T09:45:04.235Z,1019.83
2016-06-23T09:46:05.079Z,1019.78
2016-06-23T09:47:04.241Z,1019.78
2016-06-23T09:48:04.254Z,1019.77
2016-06-23T09:49:04.361Z,1019.74
2016-06-23T09:50:04.270Z,1019.75
2016-06-23T09:51:04.281Z,1019.75
2016-06-23T09:52:04.298Z,1019.76
2016-06-23T09:53:04.303Z,1019.77
2016-06-23T09:54:04.319Z,1019.76
2016-06-23T09:55:04.315Z,1019.75
2016-06-23T09:56:04.327Z,1019.71
2016-06-23T09:57:04.338Z,1019.74
2016-06-23T09:58:04.349Z,1019.77
2016-06-23T09:59:04.357Z,1019.74
2016-06-23T10:00:04.363Z,1019.72
2016-06-23T10:01:04.373Z,1019.78
2016-06-23T10:02:04.402Z,1019.75
2016-06-23T10:03:04.403Z,1019.68
2016-06-23T10:04:04.404Z,1019.73
2016-06-23T10:05:04.413Z,1019.65
2016-06-23T10:06:04.421Z,1019.65
2016-06-23T10:07:04.430Z,1019.71
2016-06-23T10:08:04.452Z,1019.64
2016-06-23T10:09:04.447Z,1019.67
2016-06-23T10:10:04.459Z,1019.67
2016-06-23T10:11:04.469Z,1019.69
2016-06-23T10:12:04.474Z,1019.64
2016-06-23T10:13:04.487Z,1019.61
2016-06-23T10:14:04.488Z,1019.59
2016-06-23T10:15:04.507Z,1019.55
2016-06-23T10:16:04.608Z,1019.57
2016-06-23T10:17:04.518Z,1019.52
2016-06-23T10:18:04.531Z,1019.52
2016-06-23T10:19:04.540Z,1019.53
2016-06-23T10:20:04.554Z,1019.51
2016-06-23T10:21:04.561Z,1019.48
2016-06-23T10:22:04.570Z,1019.44
2016-06-23T10:23:04.575Z,1019.52
2016-06-23T10:24:04.583Z,1019.45
2016-06-23T10:25:04.602Z,1019.47
2016-06-23T10:26:04.641Z,1019.44
2016-06-23T10:27:04.612Z,1019.42
2016-06-23T10:28:04.613Z,1019.41
2016-06-23T10:29:04.627Z,1019.44
2016-06-23T10:30:04.634Z,1019.39
2016-06-23T10:31:04.644Z,1019.4
2016-06-23T10:32:04.653Z,1019.39
2016-06-23T10:33:04.666Z,1019.39
2016-06-23T10:34:04.671Z,1019.37
2016-06-23T10:35:04.681Z,1019.31
2016-06-23T10:36:04.694Z,1019.26
2016-06-23T10:37:04.696Z,1019.22
2016-06-23T10:38:04.712Z,1019.21
2016-06-23T10:39:04.748Z,1019.2
2016-06-23T10:40:04.727Z,1019.26
2016-06-23T10:41:04.735Z,1019.19
2016-06-23T10:42:04.746Z,1019.17
2016-06-23T10:43:04.749Z,1019.2
2016-06-23T10:44:04.765Z,1019.19
2016-06-23T10:45:04.775Z,1019.1
2016-06-23T10:46:04.775Z,1019.12
2016-06-23T10:47:04.789Z,1019.11
2016-06-23T10:48:04.794Z,1019.11
2016-06-23T10:49:04.813Z,1019.09
2016-06-23T10:50:04.812Z,1019.06
2016-06-23T10:51:06.601Z,1019.04
2016-06-23T10:53:06.867Z,1019.05
2016-06-23T10:54:04.853Z,1019.05
2016-06-23T10:55:04.858Z,1019.04
2016-06-23T10:56:05.071Z,1019.01
2016-06-23T10:57:04.878Z,1018.97
2016-06-23T10:58:04.961Z,1018.97
2016-06-23T10:59:04.898Z,1018.88
2016-06-23T11:00:05.405Z,1018.93
2016-06-23T11:01:05.613Z,1018.91
2016-06-23T11:02:04.922Z,1018.93
2016-06-23T11:03:06.120Z,1018.89
2016-06-23T11:04:04.959Z,1018.85
2016-06-23T11:05:04.946Z,1018.89
2016-06-23T11:06:04.955Z,1018.83
2016-06-23T11:07:04.967Z,1018.74
2016-06-23T11:08:04.973Z,1018.75
2016-06-23T11:09:04.981Z,1018.7
2016-06-23T11:10:04.990Z,1018.67
2016-06-23T11:11:05.006Z,1018.63
2016-06-23T11:12:05.011Z,1018.57
2016-06-23T11:13:05.024Z,1018.56
2016-06-23T11:14:05.026Z,1018.55
2016-06-23T11:15:05.038Z,1018.57
2016-06-23T11:16:05.047Z,1018.66
2016-06-23T11:17:05.056Z,1018.65
2016-06-23T11:18:05.068Z,1018.65
2016-06-23T11:19:05.071Z,1018.66
2016-06-23T11:20:05.081Z,1018.68
2016-06-23T11:21:05.091Z,1018.69
2016-06-23T11:22:05.102Z,1018.68
2016-06-23T11:23:05.105Z,1018.74
2016-06-23T11:24:05.114Z,1018.74
2016-06-23T11:25:05.128Z,1018.69
2016-06-23T11:26:05.134Z,1018.69
2016-06-23T11:27:05.144Z,1018.6
2016-06-23T11:28:05.159Z,1018.6
2016-06-23T11:29:05.163Z,1018.64
2016-06-23T11:30:05.173Z,1018.63
2016-06-23T11:31:05.183Z,1018.58
2016-06-23T11:32:05.187Z,1018.6
2016-06-23T11:33:05.195Z,1018.61
2016-06-23T11:34:05.209Z,1018.58
2016-06-23T11:35:05.214Z,1018.58
2016-06-23T11:36:05.228Z,1018.6
2016-06-23T11:37:05.234Z,1018.59
2016-06-23T11:38:05.237Z,1018.54
2016-06-23T11:39:05.253Z,1018.54
2016-06-23T11:40:05.264Z,1018.51
2016-06-23T11:41:05.270Z,1018.56
2016-06-23T11:42:05.274Z,1018.52
2016-06-23T11:43:05.293Z,1018.48
2016-06-23T11:44:05.295Z,1018.44
2016-06-23T11:45:05.308Z,1018.43
2016-06-23T11:46:05.315Z,1018.39
2016-06-23T11:47:05.322Z,1018.4
2016-06-23T11:48:05.330Z,1018.41
2016-06-23T11:49:05.347Z,1018.42
2016-06-23T11:50:05.351Z,1018.41
2016-06-23T11:51:05.357Z,1018.33
2016-06-23T11:52:05.366Z,1018.36
2016-06-23T11:53:05.380Z,1018.37
2016-06-23T11:54:05.389Z,1018.39
2016-06-23T11:55:05.390Z,1018.39
2016-06-23T11:56:05.403Z,1018.36
2016-06-23T11:57:05.415Z,1018.36
2016-06-23T11:58:05.418Z,1018.33
2016-06-23T11:59:05.428Z,1018.29
2016-06-23T12:00:05.454Z,1018.29
2016-06-23T12:01:05.452Z,1018.3
2016-06-23T12:02:05.456Z,1018.27
2016-06-23T12:03:05.460Z,1018.23
2016-06-23T12:04:05.476Z,1018.2
2016-06-23T12:05:05.482Z,1018.22
2016-06-23T12:06:05.503Z,1018.14
2016-06-23T12:07:05.500Z,1018.16
2016-06-23T12:08:05.508Z,1018.15
2016-06-23T12:10:05.530Z,1018.15
2016-06-23T12:11:05.579Z,1018.13
2016-06-23T12:12:05.544Z,1018.16
2016-06-23T12:13:06.119Z,1018.17
2016-06-23T12:14:06.416Z,1018.19
2016-06-23T12:15:05.580Z,1018.16
2016-06-23T12:16:05.683Z,1018.18
2016-06-23T12:17:05.592Z,1018.24